Time;durP1;ratioP1;P1;durP2;ratioP2;P2;SDS_P1;SDS_P2;PMS_P1;PMS_P2;Temp;Humidity;BMP_temperature;BMP_pressure;BME280_temperature;BME280_humidity;BME280_pressure;Samples;Min_cycle;Max_cycle;Signal;HPM_P1;HPM_P2
2023/02/04 00:02:22;;;;;;;18.00;6.80;;;9.00;99.90;;;;;;5042356;28;20856;-73
2023/02/04 00:05:11;;;;;;;20.90;7.13;;;9.10;99.90;;;;;;5046274;28;20422;-73
2023/02/04 00:07:56;;;;;;;8.87;6.10;;;9.00;99.90;;;;;;5049267;28;21003;-72
2023/02/04 00:10:42;;;;;;;17.00;6.37;;;8.90;99.90;;;;;;5042668;28;20422;-73
2023/02/04 00:13:28;;;;;;;18.87;6.23;;;8.90;99.90;;;;;;5039772;28;20464;-72
2023/02/04 00:16:13;;;;;;;13.83;6.43;;;9.00;99.90;;;;;;5041285;28;20578;-73
2023/02/04 00:18:59;;;;;;;13.13;5.40;;;8.90;99.90;;;;;;5041730;28;20439;-73
2023/02/04 00:21:46;;;;;;;10.80;4.60;;;9.00;99.90;;;;;;5039114;28;20455;-73
2023/02/04 00:24:32;;;;;;;11.90;4.17;;;9.00;99.90;;;;;;5046578;28;20961;-73
2023/02/04 00:27:17;;;;;;;13.33;4.43;;;9.00;99.90;;;;;;5050424;28;20494;-73
2023/02/04 00:30:03;;;;;;;12.20;4.30;;;9.10;99.90;;;;;;5043518;28;20511;-73
2023/02/04 00:32:53;;;;;;;14.87;4.13;;;9.10;99.90;;;;;;5047538;28;20463;-72
2023/02/04 00:35:39;;;;;;;20.50;4.03;;;9.10;99.90;;;;;;5046760;28;20791;-73
2023/02/04 00:38:26;;;;;;;22.43;5.10;;;9.10;99.90;;;;;;5045006;28;20476;-73
2023/02/04 00:41:11;;;;;;;13.43;4.10;;;9.10;99.90;;;;;;5040514;28;20438;-73
2023/02/04 00:43:57;;;;;;;11.53;3.73;;;9.10;99.90;;;;;;5042886;28;20811;-72
2023/02/04 00:46:43;;;;;;;16.87;4.20;;;9.00;99.90;;;;;;5049410;28;20504;-72
2023/02/04 00:49:28;;;;;;;12.67;4.33;;;9.10;99.90;;;;;;5050915;28;20478;-73
2023/02/04 00:52:14;;;;;;;18.90;4.30;;;9.10;99.90;;;;;;5046799;28;20458;-71
2023/02/04 00:55:01;;;;;;;11.83;3.47;;;9.10;99.90;;;;;;5053064;28;21063;-73
2023/02/04 00:57:47;;;;;;;24.13;4.10;;;9.20;99.90;;;;;;5043068;28;20603;-73
2023/02/04 01:00:33;;;;;;;15.67;3.77;;;9.10;99.90;;;;;;5045175;28;20426;-73
2023/02/04 01:03:19;;;;;;;10.40;4.20;;;9.20;99.90;;;;;;5045570;28;20466;-72
2023/02/04 01:06:05;;;;;;;11.70;4.30;;;9.10;99.90;;;;;;5048182;28;20414;-73
2023/02/04 01:08:51;;;;;;;10.93;3.90;;;9.10;99.90;;;;;;5051464;28;20451;-73
2023/02/04 01:11:38;;;;;;;9.23;3.37;;;9.10;99.90;;;;;;5041232;28;21022;-73
2023/02/04 01:14:24;;;;;;;9.00;3.10;;;9.10;99.90;;;;;;5048326;28;20458;-73
2023/02/04 01:17:09;;;;;;;14.60;4.30;;;9.10;99.90;;;;;;5048527;28;20490;-72
2023/02/04 01:19:55;;;;;;;19.30;4.33;;;9.10;99.90;;;;;;5046498;28;20455;-73
2023/02/04 01:22:41;;;;;;;16.93;3.50;;;9.10;99.90;;;;;;5046151;28;20467;-73
2023/02/04 01:25:26;;;;;;;12.20;3.30;;;9.00;99.90;;;;;;5045450;28;20443;-72
2023/02/04 01:28:13;;;;;;;21.10;3.93;;;9.00;99.90;;;;;;5049597;28;20443;-72
2023/02/04 01:30:59;;;;;;;15.40;3.67;;;9.00;99.90;;;;;;5041286;28;20939;-72
2023/02/04 01:33:45;;;;;;;14.23;4.43;;;9.00;99.90;;;;;;5048140;28;20554;-72
2023/02/04 01:36:31;;;;;;;17.37;4.13;;;8.90;99.90;;;;;;5049807;28;20805;-73
2023/02/04 01:39:17;;;;;;;14.30;4.13;;;8.90;99.90;;;;;;5044895;28;20526;-72
2023/02/04 01:42:02;;;;;;;19.53;3.60;;;9.00;99.90;;;;;;5042398;28;21276;-72
2023/02/04 01:44:49;;;;;;;11.63;4.07;;;8.90;99.90;;;;;;5045493;28;20446;-73
2023/02/04 01:47:36;;;;;;;12.47;4.37;;;8.90;99.90;;;;;;5046346;28;20804;-72
2023/02/04 01:50:22;;;;;;;16.83;4.07;;;9.00;99.90;;;;;;5041524;28;20458;-73
2023/02/04 01:53:07;;;;;;;17.27;3.63;;;9.00;99.90;;;;;;5048069;28;20833;-73
2023/02/04 01:55:53;;;;;;;15.33;3.80;;;9.00;99.90;;;;;;5053958;28;20447;-72
2023/02/04 01:58:39;;;;;;;15.30;3.37;;;9.00;99.90;;;;;;5048797;28;20471;-72
2023/02/04 02:01:39;;;;;;;11.37;3.60;;;9.00;99.90;;;;;;5055602;28;20536;-73
2023/02/04 02:04:30;;;;;;;8.60;3.43;;;9.00;99.90;;;;;;5056827;28;20426;-73
2023/02/04 02:07:15;;;;;;;8.93;3.23;;;9.00;99.90;;;;;;5051120;28;20810;-73
2023/02/04 02:10:01;;;;;;;16.67;4.17;;;9.00;99.90;;;;;;5039691;28;20511;-73
2023/02/04 02:12:48;;;;;;;15.60;4.20;;;8.90;99.90;;;;;;5056090;28;21108;-73
2023/02/04 02:15:34;;;;;;;17.50;3.43;;;8.90;99.90;;;;;;5049961;28;21106;-73
2023/02/04 02:18:21;;;;;;;13.10;4.13;;;8.90;99.90;;;;;;5050850;28;20475;-73
2023/02/04 02:21:11;;;;;;;13.93;3.40;;;8.90;99.90;;;;;;5048262;28;20441;-73
2023/02/04 02:23:59;;;;;;;18.40;3.97;;;8.90;99.90;;;;;;5052707;28;20856;-73
2023/02/04 02:26:45;;;;;;;14.47;3.10;;;8.90;99.90;;;;;;5050765;28;20435;-72
2023/02/04 02:29:31;;;;;;;12.80;3.60;;;8.90;99.90;;;;;;5045822;28;20439;-72
2023/02/04 02:32:17;;;;;;;19.10;3.10;;;8.90;99.90;;;;;;5053997;28;20462;-73
2023/02/04 02:35:04;;;;;;;17.90;3.90;;;9.00;99.90;;;;;;5048928;28;20452;-73
2023/02/04 02:37:49;;;;;;;14.37;3.97;;;8.90;99.90;;;;;;5053922;28;20463;-73
2023/02/04 02:40:37;;;;;;;10.37;3.20;;;8.90;99.90;;;;;;5045860;28;20455;-73
2023/02/04 02:43:25;;;;;;;15.00;3.20;;;8.90;99.90;;;;;;5049470;28;20474;-73
2023/02/04 02:46:11;;;;;;;6.87;3.30;;;8.90;99.90;;;;;;5047264;28;20496;-73
2023/02/04 02:48:57;;;;;;;9.47;2.83;;;8.90;99.90;;;;;;5041293;28;20451;-73
2023/02/04 02:51:42;;;;;;;19.37;4.60;;;8.90;99.90;;;;;;5051153;28;20990;-73
2023/02/04 02:54:30;;;;;;;12.30;3.53;;;8.90;99.90;;;;;;5049862;28;20471;-73
2023/02/04 02:57:18;;;;;;;18.00;3.37;;;8.90;99.90;;;;;;5051242;28;20513;-72
2023/02/04 03:00:14;;;;;;;14.53;3.90;;;8.90;99.90;;;;;;5046819;28;20801;-72
2023/02/04 03:03:04;;;;;;;13.50;3.33;;;8.70;99.90;;;;;;5047856;28;20826;-72
2023/02/04 03:05:53;;;;;;;18.73;5.10;;;8.60;99.90;;;;;;5052954;28;20451;-73
2023/02/04 03:08:40;;;;;;;15.20;3.30;;;8.60;99.90;;;;;;5047250;28;20419;-73
2023/02/04 03:11:28;;;;;;;16.13;3.50;;;8.60;99.90;;;;;;5049047;28;20455;-73
2023/02/04 03:14:15;;;;;;;11.50;3.50;;;8.50;99.90;;;;;;5049737;28;20574;-72
2023/02/04 03:17:05;;;;;;;15.60;4.93;;;8.50;99.90;;;;;;5050167;28;20443;-71
2023/02/04 03:19:50;;;;;;;14.50;4.20;;;8.50;99.90;;;;;;5050183;28;20461;-72
2023/02/04 03:22:36;;;;;;;15.23;4.27;;;8.60;99.90;;;;;;5045980;28;21011;-73
2023/02/04 03:25:23;;;;;;;14.07;4.40;;;8.70;99.90;;;;;;5055070;28;20431;-73
2023/02/04 03:28:09;;;;;;;13.13;3.60;;;8.70;99.90;;;;;;5042469;28;20447;-73
2023/02/04 03:30:56;;;;;;;22.07;4.70;;;8.80;99.90;;;;;;5059907;28;20952;-73
2023/02/04 03:33:42;;;;;;;16.67;4.70;;;8.80;99.90;;;;;;5052860;28;20784;-73
2023/02/04 03:36:28;;;;;;;17.67;4.10;;;8.90;99.90;;;;;;5049064;28;20471;-72
2023/02/04 03:39:13;;;;;;;18.93;3.27;;;8.90;99.90;;;;;;5046054;28;20441;-73
2023/02/04 03:41:59;;;;;;;22.27;5.00;;;8.90;99.90;;;;;;5045938;28;20471;-73
2023/02/04 03:44:45;;;;;;;15.27;3.73;;;8.90;99.90;;;;;;5046641;28;20519;-72
2023/02/04 03:47:32;;;;;;;19.93;4.80;;;8.90;99.90;;;;;;5046407;28;20529;-72
2023/02/04 03:50:18;;;;;;;15.77;5.00;;;8.90;99.90;;;;;;5045283;28;20443;-73
2023/02/04 03:53:04;;;;;;;13.50;4.40;;;8.90;99.90;;;;;;5042345;28;20499;-73
2023/02/04 03:55:49;;;;;;;16.30;4.37;;;8.80;99.90;;;;;;5047829;28;20429;-73
2023/02/04 03:58:35;;;;;;;15.73;5.17;;;8.80;99.90;;;;;;5041392;28;20807;-73
2023/02/04 04:01:21;;;;;;;13.73;4.53;;;8.70;99.90;;;;;;5052411;28;20772;-73
2023/02/04 04:04:08;;;;;;;15.00;4.10;;;8.70;99.90;;;;;;5047441;28;20545;-72
2023/02/04 04:06:54;;;;;;;18.77;4.23;;;8.60;99.90;;;;;;5038827;28;20507;-71
2023/02/04 04:09:39;;;;;;;15.03;3.80;;;8.60;99.90;;;;;;5047026;28;20439;-73
2023/02/04 04:12:25;;;;;;;19.93;5.60;;;8.60;99.90;;;;;;5050410;28;20471;-72
2023/02/04 04:15:11;;;;;;;18.43;4.70;;;8.60;99.90;;;;;;5052510;28;20879;-73
2023/02/04 04:17:56;;;;;;;20.17;3.57;;;8.60;99.90;;;;;;5038346;28;20463;-73
2023/02/04 04:20:43;;;;;;;16.50;5.20;;;8.60;99.90;;;;;;5043196;28;20440;-73
2023/02/04 04:23:29;;;;;;;25.10;4.87;;;8.50;99.90;;;;;;5049212;28;20579;-73
2023/02/04 04:26:16;;;;;;;15.10;5.83;;;8.50;99.90;;;;;;5050426;28;20447;-73
2023/02/04 04:29:01;;;;;;;9.50;3.67;;;8.50;99.90;;;;;;5046935;28;20422;-73
2023/02/04 04:31:47;;;;;;;11.60;3.63;;;8.40;99.90;;;;;;5050608;28;20466;-73
2023/02/04 04:34:33;;;;;;;14.30;3.90;;;8.20;99.90;;;;;;5042825;28;20443;-73
2023/02/04 04:37:20;;;;;;;16.40;5.30;;;8.20;99.90;;;;;;5051055;28;20460;-73
2023/02/04 04:40:06;;;;;;;11.30;4.60;;;7.90;99.90;;;;;;5054070;28;20423;-73
2023/02/04 04:42:52;;;;;;;10.67;3.93;;;7.80;99.90;;;;;;5058264;28;20594;-73
2023/02/04 04:45:38;;;;;;;20.60;4.53;;;7.90;99.90;;;;;;5050869;28;20530;-72
2023/02/04 04:48:24;;;;;;;15.30;3.63;;;7.80;99.90;;;;;;5040532;28;20856;-72
2023/02/04 04:51:10;;;;;;;10.60;3.23;;;7.80;99.90;;;;;;5050991;28;20451;-73
2023/02/04 04:53:57;;;;;;;10.30;3.50;;;7.80;99.90;;;;;;5050387;28;20448;-72
2023/02/04 04:56:42;;;;;;;10.77;3.83;;;7.80;99.90;;;;;;5045601;28;20465;-73
2023/02/04 04:59:28;;;;;;;6.03;3.20;;;7.60;99.90;;;;;;5046798;28;20486;-73
2023/02/04 05:02:14;;;;;;;22.07;4.27;;;7.60;99.90;;;;;;5048605;28;20464;-72
2023/02/04 05:05:00;;;;;;;12.10;4.40;;;7.60;99.90;;;;;;5044678;28;20447;-73
2023/02/04 05:07:46;;;;;;;15.63;4.00;;;7.60;99.90;;;;;;5043333;28;20578;-72
2023/02/04 05:10:33;;;;;;;9.43;4.17;;;7.50;99.90;;;;;;5046205;28;20439;-73
2023/02/04 05:13:19;;;;;;;18.20;3.80;;;7.50;99.90;;;;;;5056189;28;20466;-72
2023/02/04 05:16:05;;;;;;;14.30;3.63;;;7.50;99.90;;;;;;5042527;28;21024;-73
2023/02/04 05:18:51;;;;;;;14.73;4.20;;;7.40;99.90;;;;;;5050336;28;20443;-73
2023/02/04 05:21:37;;;;;;;23.40;5.20;;;7.50;99.90;;;;;;5048383;28;20463;-73
2023/02/04 05:24:23;;;;;;;28.10;4.93;;;7.40;99.90;;;;;;5044495;28;20425;-72
2023/02/04 05:27:10;;;;;;;20.00;4.80;;;7.50;99.90;;;;;;5041425;28;21047;-73
2023/02/04 05:29:55;;;;;;;14.80;4.00;;;7.60;99.90;;;;;;5050236;28;20637;-72
2023/02/04 05:32:41;;;;;;;14.87;5.03;;;7.70;99.90;;;;;;5047875;28;20462;-73
2023/02/04 05:35:27;;;;;;;20.13;5.00;;;7.70;99.90;;;;;;5054443;28;20586;-73
2023/02/04 05:38:12;;;;;;;13.93;4.00;;;7.80;99.90;;;;;;5050953;28;20414;-72
2023/02/04 05:40:58;;;;;;;11.00;3.73;;;7.80;99.90;;;;;;5053413;28;20489;-74
2023/02/04 05:43:45;;;;;;;12.70;3.40;;;7.80;99.90;;;;;;5056008;28;20967;-73
2023/02/04 05:46:30;;;;;;;10.27;3.67;;;7.80;99.90;;;;;;5047822;28;20455;-73
2023/02/04 05:49:16;;;;;;;15.87;4.17;;;7.70;99.90;;;;;;5048318;28;20546;-73
2023/02/04 05:52:02;;;;;;;9.33;4.10;;;7.80;99.90;;;;;;5052395;28;20459;-73
2023/02/04 05:54:48;;;;;;;16.67;4.37;;;7.70;99.90;;;;;;5048692;28;20957;-73
2023/02/04 05:57:33;;;;;;;19.27;4.50;;;7.70;99.90;;;;;;5051588;28;20429;-73
2023/02/04 06:00:21;;;;;;;9.93;4.50;;;7.60;99.90;;;;;;5062938;28;20466;-73
2023/02/04 06:03:06;;;;;;;16.07;4.77;;;7.60;99.90;;;;;;5058512;28;20430;-73
2023/02/04 06:05:52;;;;;;;13.83;3.70;;;7.60;99.90;;;;;;5051929;28;20765;-73
2023/02/04 06:08:38;;;;;;;22.50;5.07;;;7.60;99.90;;;;;;5051730;28;20455;-73
2023/02/04 06:11:23;;;;;;;15.10;4.10;;;7.50;99.90;;;;;;5049707;28;20455;-73
2023/02/04 06:14:09;;;;;;;28.67;4.23;;;7.60;99.90;;;;;;5051396;28;20447;-73
2023/02/04 06:16:56;;;;;;;19.03;4.60;;;7.70;99.90;;;;;;5045749;28;20443;-73
2023/02/04 06:19:42;;;;;;;26.40;5.97;;;7.70;99.90;;;;;;5048817;28;20463;-73
2023/02/04 06:22:27;;;;;;;16.60;4.43;;;7.80;99.90;;;;;;5051649;28;20854;-73
2023/02/04 06:25:13;;;;;;;22.30;4.10;;;7.90;99.90;;;;;;5043880;28;20455;-73
2023/02/04 06:27:59;;;;;;;16.67;3.50;;;7.80;99.90;;;;;;5052523;28;20802;-73
2023/02/04 06:30:44;;;;;;;25.27;4.80;;;7.80;99.90;;;;;;5050978;28;20559;-73
2023/02/04 06:33:31;;;;;;;16.50;5.43;;;7.80;99.90;;;;;;5051931;28;20459;-73
2023/02/04 06:36:17;;;;;;;24.40;7.37;;;7.80;99.90;;;;;;5045735;28;20456;-73
2023/02/04 06:39:03;;;;;;;22.23;5.93;;;7.80;99.90;;;;;;5052462;28;20474;-74
2023/02/04 06:41:49;;;;;;;15.30;4.87;;;7.70;99.90;;;;;;5052590;28;20474;-73
2023/02/04 06:44:34;;;;;;;18.40;5.70;;;7.80;99.90;;;;;;5043321;28;20442;-73
2023/02/04 06:47:20;;;;;;;24.53;7.17;;;7.90;99.90;;;;;;5054074;28;20842;-73
2023/02/04 06:50:08;;;;;;;19.30;5.60;;;7.90;99.90;;;;;;5047826;28;20828;-74
2023/02/04 06:52:54;;;;;;;55.33;24.13;;;7.90;99.90;;;;;;5047913;28;20862;-73
2023/02/04 06:55:40;;;;;;;40.60;15.80;;;7.90;99.90;;;;;;5044456;28;20485;-73
2023/02/04 06:58:25;;;;;;;35.93;10.33;;;7.80;99.90;;;;;;5044185;28;20439;-73
2023/02/04 07:01:11;;;;;;;31.80;10.70;;;7.80;99.90;;;;;;5050043;28;20452;-74
2023/02/04 07:03:56;;;;;;;30.20;11.63;;;7.80;99.90;;;;;;5043018;28;20912;-73
2023/02/04 07:06:43;;;;;;;26.60;6.87;;;7.80;99.90;;;;;;5048519;28;20418;-73
2023/02/04 07:09:29;;;;;;;21.60;5.87;;;7.80;99.90;;;;;;5051196;28;20416;-73
2023/02/04 07:12:14;;;;;;;25.53;7.70;;;7.90;99.90;;;;;;5051937;28;20529;-73
2023/02/04 07:15:00;;;;;;;21.50;5.90;;;7.90;99.90;;;;;;5052971;28;20447;-73
2023/02/04 07:17:46;;;;;;;19.67;5.07;;;8.00;99.90;;;;;;5050159;28;20443;-73
2023/02/04 07:20:31;;;;;;;16.93;4.60;;;8.00;99.90;;;;;;5051285;28;21020;-73
2023/02/04 07:23:18;;;;;;;12.60;4.60;;;7.70;99.90;;;;;;5041283;28;21015;-73
2023/02/04 07:26:04;;;;;;;23.47;5.23;;;7.40;99.90;;;;;;5046404;28;20443;-74
2023/02/04 07:28:50;;;;;;;14.47;5.07;;;7.40;99.90;;;;;;5051543;28;20439;-73
2023/02/04 07:31:35;;;;;;;16.03;5.10;;;7.40;99.90;;;;;;5047046;28;20459;-73
2023/02/04 07:34:21;;;;;;;21.50;6.53;;;7.50;99.90;;;;;;5048750;28;20459;-74
2023/02/04 07:37:07;;;;;;;20.20;6.63;;;7.50;99.90;;;;;;5054046;28;20428;-73
2023/02/04 07:39:54;;;;;;;24.80;6.40;;;7.60;99.90;;;;;;5050650;28;20474;-73
2023/02/04 07:42:39;;;;;;;23.03;5.60;;;7.60;99.90;;;;;;5047868;28;20475;-73
2023/02/04 07:45:25;;;;;;;10.80;5.30;;;7.50;99.90;;;;;;5044341;28;20447;-73
2023/02/04 07:48:10;;;;;;;18.17;5.80;;;7.50;99.90;;;;;;5047026;28;20450;-73
2023/02/04 07:50:56;;;;;;;9.93;5.27;;;7.60;99.90;;;;;;5042242;28;20910;-73
2023/02/04 07:53:42;;;;;;;14.83;5.60;;;7.70;99.90;;;;;;5042047;28;20825;-73
2023/02/04 07:56:28;;;;;;;18.03;5.97;;;7.70;99.90;;;;;;5045997;28;20590;-73
2023/02/04 07:59:14;;;;;;;19.50;7.30;;;7.60;99.90;;;;;;5053222;28;20479;-74
2023/02/04 08:02:01;;;;;;;23.10;8.87;;;7.50;99.90;;;;;;5051286;28;20441;-73
2023/02/04 08:04:46;;;;;;;25.63;7.77;;;7.60;99.90;;;;;;5043624;28;21082;-73
2023/02/04 08:07:32;;;;;;;24.60;12.60;;;7.60;99.90;;;;;;5052019;28;20549;-73
2023/02/04 08:10:18;;;;;;;22.17;9.53;;;7.60;99.90;;;;;;5050623;28;20450;-73
2023/02/04 08:13:05;;;;;;;27.73;8.90;;;7.70;99.90;;;;;;5045700;28;20988;-73
2023/02/04 08:15:51;;;;;;;23.47;8.07;;;7.80;99.90;;;;;;5048874;28;20455;-73
2023/02/04 08:18:37;;;;;;;25.87;8.17;;;7.80;99.90;;;;;;5046111;28;20530;-73
2023/02/04 08:21:22;;;;;;;31.60;8.60;;;7.90;99.90;;;;;;5051511;28;20452;-73
2023/02/04 08:24:08;;;;;;;22.50;8.40;;;7.80;99.90;;;;;;5039727;28;21045;-73
2023/02/04 08:26:54;;;;;;;21.33;8.57;;;8.00;99.90;;;;;;5054923;28;20439;-73
2023/02/04 08:29:41;;;;;;;21.53;8.63;;;8.00;99.90;;;;;;5049354;28;20567;-73
2023/02/04 08:32:28;;;;;;;18.20;10.60;;;8.00;99.90;;;;;;5045531;28;20529;-73
2023/02/04 08:35:13;;;;;;;28.00;8.50;;;8.10;99.90;;;;;;5044679;28;20581;-73
2023/02/04 08:37:59;;;;;;;23.73;8.87;;;8.10;99.90;;;;;;5045831;28;20446;-73
2023/02/04 08:40:45;;;;;;;61.90;16.67;;;8.20;99.90;;;;;;5046673;28;20439;-73
2023/02/04 08:43:30;;;;;;;79.20;28.70;;;8.20;99.90;;;;;;5000538;28;1164548;-72
2023/02/04 08:46:17;;;;;;;57.42;22.63;;;8.30;99.90;;;;;;5053576;28;20509;-73
2023/02/04 08:49:03;;;;;;;63.90;22.20;;;8.30;99.90;;;;;;5044761;28;20201;-73
2023/02/04 08:51:49;;;;;;;58.20;18.93;;;8.40;99.90;;;;;;5041633;28;20566;-73
2023/02/04 08:54:35;;;;;;;34.43;12.27;;;8.40;99.90;;;;;;5044879;28;20414;-73
2023/02/04 08:57:20;;;;;;;38.67;11.70;;;8.50;99.90;;;;;;5048681;28;20443;-73
2023/02/04 09:00:07;;;;;;;28.67;8.73;;;8.60;99.90;;;;;;5051153;28;20518;-73
2023/02/04 09:02:54;;;;;;;24.40;7.47;;;8.60;99.90;;;;;;5048362;28;20558;-73
2023/02/04 09:05:39;;;;;;;22.53;7.10;;;8.60;99.90;;;;;;5052566;28;20439;-73
2023/02/04 09:08:25;;;;;;;15.83;8.30;;;8.60;99.90;;;;;;5051828;28;20451;-73
2023/02/04 09:11:11;;;;;;;22.10;7.70;;;8.60;99.90;;;;;;5049366;28;20439;-73
2023/02/04 09:13:56;;;;;;;30.83;8.63;;;8.70;99.90;;;;;;5047198;28;20518;-73
2023/02/04 09:16:42;;;;;;;30.20;8.30;;;8.80;99.90;;;;;;5052951;28;20611;-73
2023/02/04 09:19:29;;;;;;;24.20;9.60;;;8.90;99.90;;;;;;5056039;28;20625;-73
2023/02/04 09:22:15;;;;;;;36.00;9.00;;;8.90;99.90;;;;;;5053701;28;21650;-74
2023/02/04 09:25:00;;;;;;;33.80;8.73;;;8.90;99.90;;;;;;5051914;28;20451;-73
2023/02/04 09:27:46;;;;;;;21.73;7.27;;;8.80;99.90;;;;;;5050942;28;20578;-73
2023/02/04 09:30:32;;;;;;;38.53;7.03;;;8.80;99.90;;;;;;5055458;28;20463;-73
2023/02/04 09:33:18;;;;;;;21.30;5.40;;;8.80;99.90;;;;;;5045345;28;20470;-74
2023/02/04 09:36:05;;;;;;;20.57;5.00;;;8.90;99.90;;;;;;5048281;28;20586;-73
2023/02/04 09:38:51;;;;;;;35.23;5.70;;;8.90;99.90;;;;;;5055925;28;20443;-73
2023/02/04 09:41:39;;;;;;;23.90;7.70;;;9.00;99.90;;;;;;5046294;28;20471;-73
2023/02/04 09:44:27;;;;;;;28.73;5.13;;;9.00;99.90;;;;;;5054718;28;22058;-74
2023/02/04 09:47:14;;;;;;;25.50;4.50;;;9.10;99.90;;;;;;5049326;28;20541;-73
2023/02/04 09:49:59;;;;;;;14.40;4.37;;;9.10;99.90;;;;;;5049717;28;20973;-73
2023/02/04 09:52:49;;;;;;;16.90;4.10;;;9.10;99.90;;;;;;5048031;28;20458;-73
2023/02/04 09:55:37;;;;;;;13.23;3.63;;;9.10;99.90;;;;;;5047491;28;20517;-73
2023/02/04 09:58:25;;;;;;;19.83;5.10;;;9.00;99.90;;;;;;5050101;28;20449;-73
2023/02/04 10:01:14;;;;;;;27.50;4.00;;;9.00;99.90;;;;;;5045418;28;20470;-73
2023/02/04 10:04:02;;;;;;;23.33;3.60;;;8.90;99.90;;;;;;5051517;28;20450;-73
2023/02/04 10:06:48;;;;;;;19.50;3.53;;;9.00;99.90;;;;;;5050295;28;20964;-73
2023/02/04 10:09:34;;;;;;;22.60;4.40;;;9.00;99.90;;;;;;5054128;28;20414;-73
2023/02/04 10:12:20;;;;;;;13.33;3.17;;;8.90;99.90;;;;;;5045310;28;21119;-74
2023/02/04 10:15:09;;;;;;;18.13;4.23;;;8.80;99.90;;;;;;5045431;28;20965;-74
2023/02/04 10:18:00;;;;;;;14.20;4.30;;;8.80;99.90;;;;;;5047884;28;20448;-73
2023/02/04 10:20:46;;;;;;;19.33;3.47;;;8.80;99.90;;;;;;5047881;28;20472;-73
2023/02/04 10:23:32;;;;;;;23.97;4.70;;;8.80;99.90;;;;;;5046455;28;21117;-74
2023/02/04 10:26:21;;;;;;;22.63;5.33;;;9.00;99.90;;;;;;5050238;28;20475;-74
2023/02/04 10:29:12;;;;;;;16.80;4.50;;;9.10;99.90;;;;;;5051094;28;20498;-73
2023/02/04 10:31:58;;;;;;;17.30;3.73;;;9.10;99.90;;;;;;5044392;28;20502;-73
2023/02/04 10:34:44;;;;;;;16.23;4.10;;;9.10;99.90;;;;;;5048967;28;20936;-73
2023/02/04 10:37:30;;;;;;;18.27;5.30;;;9.10;99.90;;;;;;5050430;28;20830;-74
2023/02/04 10:40:31;;;;;;;25.27;3.93;;;9.10;99.90;;;;;;5053849;28;20475;-73
2023/02/04 10:43:21;;;;;;;25.47;3.50;;;9.10;99.90;;;;;;5045500;28;21066;-73
2023/02/04 10:46:07;;;;;;;17.17;3.50;;;9.10;99.90;;;;;;5048327;28;20929;-73
2023/02/04 10:48:52;;;;;;;11.27;4.00;;;9.10;99.90;;;;;;5051863;28;20530;-73
2023/02/04 10:51:38;;;;;;;39.53;4.20;;;9.10;99.90;;;;;;5043783;28;20621;-73
2023/02/04 10:54:32;;;;;;;22.10;4.50;;;9.00;99.90;;;;;;5046494;28;20510;-73
2023/02/04 10:57:21;;;;;;;20.57;4.40;;;9.00;99.90;;;;;;5047449;28;20578;-74
2023/02/04 11:00:16;;;;;;;32.23;4.40;;;9.00;99.90;;;;;;5048984;28;20445;-74
2023/02/04 11:03:06;;;;;;;17.00;4.07;;;9.10;99.90;;;;;;5047625;28;20483;-73
2023/02/04 11:05:55;;;;;;;15.63;3.70;;;9.30;99.90;;;;;;5051192;28;20449;-73
2023/02/04 11:08:42;;;;;;;25.20;3.63;;;9.40;99.90;;;;;;5045029;28;20452;-74
2023/02/04 11:11:27;;;;;;;18.43;4.03;;;9.60;99.90;;;;;;5045732;28;20443;-73
2023/02/04 11:14:25;;;;;;;16.97;3.50;;;9.80;99.90;;;;;;5054909;28;20955;-73
2023/02/04 11:17:20;;;;;;;25.30;5.90;;;10.10;99.90;;;;;;5048194;28;20451;-73
2023/02/04 11:20:16;;;;;;;13.37;2.57;;;10.20;99.90;;;;;;5048013;28;20633;-73
2023/02/04 11:23:15;;;;;;;15.33;3.20;;;10.20;99.90;;;;;;5044889;28;20476;-73
2023/02/04 11:26:13;;;;;;;11.87;2.57;;;10.30;99.90;;;;;;5040600;28;20463;-73
2023/02/04 11:29:23;;;;;;;17.67;4.03;;;10.20;99.90;;;;;;5053292;28;20436;-73
2023/02/04 11:32:29;;;;;;;12.70;3.30;;;10.10;99.90;;;;;;5051757;28;20512;-73
2023/02/04 11:35:24;;;;;;;16.30;3.10;;;10.10;99.90;;;;;;5058151;28;20915;-73
2023/02/04 11:38:24;;;;;;;12.90;3.10;;;10.10;99.90;;;;;;5061550;28;20443;-73
2023/02/04 11:41:17;;;;;;;13.03;3.97;;;10.10;99.90;;;;;;5045855;28;21231;-73
2023/02/04 11:44:02;;;;;;;9.73;3.07;;;10.00;99.90;;;;;;5053766;28;20432;-72
2023/02/04 11:46:53;;;;;;;11.97;2.63;;;10.00;99.90;;;;;;5060996;28;20498;-72
2023/02/04 11:49:40;;;;;;;10.17;2.53;;;10.00;99.90;;;;;;5059342;28;20815;-72
2023/02/04 11:52:25;;;;;;;27.47;3.47;;;10.00;99.90;;;;;;5055114;28;20452;-72
2023/02/04 11:55:12;;;;;;;20.43;3.90;;;10.00;99.90;;;;;;5058592;28;20430;-73
2023/02/04 11:57:58;;;;;;;15.37;3.47;;;10.00;99.90;;;;;;5060404;28;20427;-73
2023/02/04 12:00:43;;;;;;;14.13;3.77;;;10.00;99.90;;;;;;5039968;28;20463;-73
2023/02/04 12:03:33;;;;;;;12.97;3.33;;;10.00;99.90;;;;;;5050636;28;20443;-73
2023/02/04 12:06:23;;;;;;;19.43;2.60;;;10.00;99.90;;;;;;5055722;28;20431;-73
2023/02/04 12:09:23;;;;;;;16.27;2.80;;;9.90;99.90;;;;;;5057979;28;20422;-72
2023/02/04 12:12:09;;;;;;;13.87;3.00;;;10.00;99.90;;;;;;5055594;28;20440;-72
2023/02/04 12:15:02;;;;;;;13.60;2.70;;;9.90;99.90;;;;;;5057807;28;20477;-73
2023/02/04 12:18:00;;;;;;;11.87;3.53;;;9.90;99.90;;;;;;5046283;28;20506;-73
2023/02/04 12:20:46;;;;;;;12.30;2.77;;;10.00;99.90;;;;;;5046122;28;20467;-73
2023/02/04 12:23:33;;;;;;;17.03;3.80;;;10.00;99.90;;;;;;5046044;28;20463;-73
2023/02/04 12:26:18;;;;;;;22.03;3.50;;;10.20;99.90;;;;;;5058295;28;20388;-73
2023/02/04 12:29:04;;;;;;;12.20;4.20;;;10.20;99.90;;;;;;5046462;28;20420;-72
2023/02/04 12:31:50;;;;;;;11.80;2.90;;;10.40;99.90;;;;;;5053603;28;20468;-73
2023/02/04 12:34:35;;;;;;;15.10;2.90;;;10.60;97.80;;;;;;5050748;28;20431;-72
2023/02/04 12:37:21;;;;;;;7.17;2.40;;;10.90;90.20;;;;;;5059264;28;20546;-72
2023/02/04 12:40:10;;;;;;;13.20;2.40;;;11.10;79.50;;;;;;5047377;28;20517;-72
2023/02/04 12:42:55;;;;;;;11.30;2.50;;;11.10;68.60;;;;;;5055802;28;20461;-72
2023/02/04 12:45:45;;;;;;;14.23;2.80;;;11.00;70.40;;;;;;5045382;28;20423;-72
2023/02/04 12:48:30;;;;;;;11.80;2.30;;;11.00;74.70;;;;;;5055361;28;20431;-71
2023/02/04 12:51:16;;;;;;;12.30;2.60;;;11.00;71.00;;;;;;5054414;28;20501;-71
2023/02/04 12:54:02;;;;;;;12.67;2.83;;;11.10;68.90;;;;;;5054587;28;20431;-71
2023/02/04 12:56:51;;;;;;;10.17;2.30;;;11.00;69.20;;;;;;5051855;28;20566;-71
2023/02/04 12:59:36;;;;;;;12.40;3.10;;;11.00;68.00;;;;;;5046185;28;20463;-71
2023/02/04 13:02:22;;;;;;;10.63;3.73;;;10.90;70.10;;;;;;5055268;28;20478;-71
2023/02/04 13:05:09;;;;;;;13.67;2.93;;;11.00;70.80;;;;;;5060737;28;20581;-70
2023/02/04 13:07:54;;;;;;;19.17;3.10;;;11.20;70.00;;;;;;5055944;28;20517;-71
2023/02/04 13:10:40;;;;;;;22.17;3.80;;;11.60;67.80;;;;;;5048871;28;20401;-71
2023/02/04 13:13:27;;;;;;;8.63;3.17;;;12.00;59.90;;;;;;5049656;28;20447;-71
2023/02/04 13:16:13;;;;;;;8.83;2.40;;;12.40;58.70;;;;;;5054631;28;20415;-71
2023/02/04 13:18:58;;;;;;;9.87;2.40;;;12.50;54.40;;;;;;5039582;28;20491;-71
2023/02/04 13:21:44;;;;;;;11.10;2.63;;;12.60;56.30;;;;;;5055214;28;20585;-72
2023/02/04 13:24:30;;;;;;;7.90;3.10;;;12.50;51.10;;;;;;5053089;28;20563;-71
2023/02/04 13:27:15;;;;;;;9.20;3.40;;;12.50;52.00;;;;;;5060937;28;20422;-71
2023/02/04 13:30:03;;;;;;;10.90;3.37;;;12.50;51.00;;;;;;5039696;28;20722;-71
2023/02/04 13:32:48;;;;;;;14.70;5.10;;;12.40;50.60;;;;;;5052449;28;20479;-71
2023/02/04 13:35:34;;;;;;;10.30;2.23;;;12.40;53.30;;;;;;5043110;28;20716;-71
2023/02/04 13:38:20;;;;;;;7.63;1.90;;;12.70;45.50;;;;;;5048791;28;20451;-71
2023/02/04 13:41:06;;;;;;;13.03;2.53;;;12.70;43.40;;;;;;5050904;28;20490;-71
2023/02/04 13:43:52;;;;;;;6.20;2.10;;;12.60;45.40;;;;;;5055991;28;20518;-72
2023/02/04 13:46:39;;;;;;;7.37;2.03;;;12.30;46.60;;;;;;5052156;28;20443;-71
2023/02/04 13:49:25;;;;;;;6.70;2.20;;;12.00;47.30;;;;;;5051162;28;20433;-71
2023/02/04 13:52:10;;;;;;;11.00;3.00;;;11.90;49.40;;;;;;5059861;28;20438;-71
2023/02/04 13:54:56;;;;;;;13.57;3.50;;;11.70;51.70;;;;;;5058800;28;20520;-71
2023/02/04 13:57:42;;;;;;;10.90;3.77;;;11.50;54.30;;;;;;5054014;28;20972;-71
2023/02/04 14:00:27;;;;;;;7.17;2.80;;;11.40;57.00;;;;;;5058009;28;20427;-72
2023/02/04 14:03:14;;;;;;;8.83;2.27;;;11.10;57.80;;;;;;5060095;28;20421;-71
2023/02/04 14:06:00;;;;;;;10.63;3.07;;;11.00;58.10;;;;;;5061015;28;20443;-72
2023/02/04 14:08:46;;;;;;;10.87;2.63;;;10.80;59.70;;;;;;5043767;28;20463;-71
2023/02/04 14:11:32;;;;;;;11.73;3.37;;;10.70;63.20;;;;;;5054027;28;20464;-72
2023/02/04 14:14:18;;;;;;;9.53;2.90;;;10.90;63.60;;;;;;5038030;28;20455;-72
2023/02/04 14:17:03;;;;;;;9.93;2.70;;;10.90;63.10;;;;;;5057419;28;20805;-72
2023/02/04 14:19:51;;;;;;;8.70;1.83;;;10.80;64.40;;;;;;5051960;28;20491;-72
2023/02/04 14:22:37;;;;;;;12.03;3.20;;;10.70;63.10;;;;;;5054159;28;20466;-72
2023/02/04 14:25:23;;;;;;;11.17;2.83;;;10.70;63.80;;;;;;5052849;28;20597;-72
2023/02/04 14:28:09;;;;;;;9.87;2.80;;;10.60;65.30;;;;;;5053433;28;20498;-72